Lodge Grass, Montana
Current Conditions -  °F | °C
As of 12:53 AM on Monday 24 Nov 2014 (Local Time) from KSHR Reporting Station
Broken Clouds Broken Clouds  
Wind Chill: 31°   Ceiling: 8000
Heat Index: 31°   Visibility: 10mi
Dew Point: 21°   Wind: 3mph
Humidity: 67%   Direction: 210°SSW
Pressure: 29.8"   Gusts: NA
Location:  45.31°N, 107.36°W
Report Text: KSHR 240753Z AUTO 21003KT 10SM SCT055 BKN080 M01/M06 A2980 RMK AO2 SLP113 T10061061 TSNO
Loading
Personal Weather Stations






























Interactive Weather Map New forecast layout! Learn more

10-Day Weather Forecast

Advertisements
Track Severe Weather on mobile